Time;durP1;ratioP1;P1;durP2;ratioP2;P2;SDS_P1;SDS_P2;PMS_P1;PMS_P2;Temp;Humidity;BMP_temperature;BMP_pressure;BME280_temperature;BME280_humidity;BME280_pressure;Samples;Min_cycle;Max_cycle;Signal;HPM_P1;HPM_P2
2023/04/28 00:01:47;;;;;;;1.60;1.15;;;12.70;48.40;;;;;;5011684;28;20030;-71
2023/04/28 00:04:12;;;;;;;1.33;0.90;;;12.80;48.50;;;;;;5011293;28;20092;-71
2023/04/28 00:06:39;;;;;;;1.55;0.88;;;12.80;48.50;;;;;;4983252;28;20480;-71
2023/04/28 00:09:09;;;;;;;5.10;0.90;;;12.80;48.60;;;;;;4988723;28;20045;-71
2023/04/28 00:11:35;;;;;;;1.63;1.27;;;12.70;48.60;;;;;;4993946;28;20022;-71
2023/04/28 00:14:00;;;;;;;0.95;0.90;;;12.70;48.60;;;;;;5010275;28;20405;-71
2023/04/28 00:16:26;;;;;;;0.90;0.50;;;12.70;48.70;;;;;;5011700;28;20504;-71
2023/04/28 00:18:52;;;;;;;0.95;0.63;;;12.60;48.70;;;;;;4993091;28;20480;-71
2023/04/28 00:21:17;;;;;;;0.95;0.90;;;12.70;48.80;;;;;;4992444;28;20532;-71
2023/04/28 00:23:43;;;;;;;1.00;0.88;;;12.70;48.80;;;;;;5010867;28;20033;-71
2023/04/28 00:26:08;;;;;;;2.78;0.95;;;12.60;48.80;;;;;;5010631;28;20042;-72
2023/04/28 00:28:34;;;;;;;1.30;1.02;;;12.60;48.80;;;;;;5010680;28;20037;-71
2023/04/28 00:31:00;;;;;;;2.08;1.02;;;12.60;48.80;;;;;;5009361;28;20021;-70
2023/04/28 00:33:26;;;;;;;1.88;0.93;;;12.60;48.90;;;;;;5006496;28;20038;-70
2023/04/28 00:36:01;;;;;;;1.67;1.13;;;12.50;48.90;;;;;;5007870;28;20486;-70
2023/04/28 00:38:26;;;;;;;1.75;0.80;;;12.60;49.10;;;;;;5006010;28;20037;-71
2023/04/28 00:40:52;;;;;;;4.22;0.90;;;12.50;49.10;;;;;;5004840;28;20027;-71
2023/04/28 00:43:18;;;;;;;0.88;0.80;;;12.50;49.00;;;;;;4986282;28;20421;-71
2023/04/28 00:45:43;;;;;;;2.67;0.43;;;12.50;49.00;;;;;;4973878;28;20035;-69
2023/04/28 00:48:09;;;;;;;3.25;0.70;;;12.50;49.10;;;;;;4986895;28;20385;-70
2023/04/28 00:50:36;;;;;;;1.25;0.90;;;12.50;49.10;;;;;;5004174;28;20040;-70
2023/04/28 00:53:01;;;;;;;2.47;1.23;;;12.50;49.10;;;;;;4999771;28;20042;-70
2023/04/28 00:55:32;;;;;;;0.60;0.45;;;12.50;49.10;;;;;;4956671;28;20081;-71
2023/04/28 00:57:58;;;;;;;0.63;0.43;;;12.50;49.20;;;;;;5006467;28;20044;-71
2023/04/28 01:00:24;;;;;;;1.48;0.82;;;12.40;49.20;;;;;;5009776;28;20448;-71
2023/04/28 01:02:54;;;;;;;1.33;0.77;;;12.50;49.30;;;;;;5008680;28;20512;-70
2023/04/28 01:05:20;;;;;;;0.68;0.68;;;12.50;49.30;;;;;;5009913;28;20080;-71
2023/04/28 01:07:45;;;;;;;2.08;0.95;;;12.40;49.20;;;;;;5006977;28;20121;-70
2023/04/28 01:10:11;;;;;;;1.30;0.88;;;12.40;49.30;;;;;;4989809;28;20129;-70
2023/04/28 01:12:37;;;;;;;0.82;0.50;;;12.40;49.40;;;;;;5003131;28;20042;-70
2023/04/28 01:15:03;;;;;;;1.63;0.98;;;12.40;49.50;;;;;;4984378;28;20042;-70
2023/04/28 01:17:28;;;;;;;1.25;0.93;;;12.40;49.50;;;;;;4991645;28;20053;-70
2023/04/28 01:19:54;;;;;;;1.63;0.93;;;12.40;49.60;;;;;;5007554;28;20057;-70
2023/04/28 01:22:20;;;;;;;1.20;0.60;;;12.40;49.80;;;;;;5001537;28;20481;-70
2023/04/28 01:24:46;;;;;;;0.73;0.60;;;12.40;50.10;;;;;;5007859;28;20037;-71
2023/04/28 01:27:11;;;;;;;1.13;0.73;;;12.30;50.40;;;;;;5005379;28;20038;-71
2023/04/28 01:29:37;;;;;;;0.95;0.63;;;12.30;50.70;;;;;;5009384;28;20061;-70
2023/04/28 01:32:03;;;;;;;0.65;0.57;;;12.30;51.30;;;;;;4990950;28;20034;-69
2023/04/28 01:34:29;;;;;;;1.05;0.60;;;12.30;52.00;;;;;;4988965;28;20141;-69
2023/04/28 01:36:55;;;;;;;1.20;0.93;;;12.20;52.70;;;;;;4980263;28;20046;-70
2023/04/28 01:39:20;;;;;;;1.17;0.88;;;12.20;52.50;;;;;;5005043;28;20018;-70
2023/04/28 01:41:46;;;;;;;1.17;0.70;;;12.20;52.90;;;;;;5007280;28;20030;-69
2023/04/28 01:44:12;;;;;;;1.00;0.80;;;12.10;53.20;;;;;;5007730;28;20503;-69
2023/04/28 01:46:37;;;;;;;0.57;0.50;;;12.10;53.70;;;;;;5008746;28;20038;-70
2023/04/28 01:49:03;;;;;;;1.27;0.70;;;12.10;53.90;;;;;;5009915;28;20021;-70
2023/04/28 01:51:30;;;;;;;0.98;0.65;;;12.00;54.00;;;;;;4990062;28;20045;-70
2023/04/28 01:53:55;;;;;;;1.20;0.90;;;12.00;54.10;;;;;;4989661;28;20452;-70
2023/04/28 01:56:21;;;;;;;1.38;1.00;;;11.90;54.20;;;;;;5008361;28;20022;-72
2023/04/28 01:58:47;;;;;;;1.40;0.63;;;11.90;54.30;;;;;;5006797;28;20101;-72
2023/04/28 02:01:12;;;;;;;1.70;0.80;;;11.90;54.30;;;;;;5008019;28;20029;-72
2023/04/28 02:03:38;;;;;;;1.45;0.73;;;11.90;54.40;;;;;;5009164;28;20508;-72
2023/04/28 02:06:04;;;;;;;1.05;0.90;;;11.80;54.50;;;;;;5007478;28;20041;-71
2023/04/28 02:08:30;;;;;;;0.70;0.50;;;11.90;54.80;;;;;;5009601;28;20026;-70
2023/04/28 02:10:56;;;;;;;1.02;0.70;;;11.80;54.70;;;;;;5005735;28;20140;-69
2023/04/28 02:13:22;;;;;;;2.15;1.02;;;11.80;54.80;;;;;;4991200;28;20033;-69
2023/04/28 02:15:48;;;;;;;0.93;0.88;;;11.90;54.90;;;;;;5006854;28;20042;-71
2023/04/28 02:18:14;;;;;;;2.58;0.90;;;11.90;54.90;;;;;;4991214;28;20478;-70
2023/04/28 02:20:40;;;;;;;7.55;0.63;;;11.90;54.90;;;;;;5008797;28;20401;-69
2023/04/28 02:23:05;;;;;;;2.33;0.93;;;11.90;54.90;;;;;;4993072;28;20025;-69
2023/04/28 02:25:31;;;;;;;2.38;1.02;;;11.90;54.80;;;;;;5013110;28;20038;-69
2023/04/28 02:27:58;;;;;;;1.33;0.73;;;11.90;54.80;;;;;;5010821;28;20106;-69
2023/04/28 02:30:23;;;;;;;2.33;0.75;;;11.90;54.70;;;;;;4987825;28;20108;-69
2023/04/28 02:32:49;;;;;;;0.70;0.60;;;11.90;54.80;;;;;;5006737;28;20026;-69
2023/04/28 02:35:15;;;;;;;0.77;0.77;;;11.90;54.70;;;;;;5009175;28;20030;-69
2023/04/28 02:37:41;;;;;;;0.80;0.55;;;11.90;54.60;;;;;;4994875;28;20026;-69
2023/04/28 02:40:07;;;;;;;3.92;0.80;;;11.80;54.70;;;;;;5010502;28;20033;-69
2023/04/28 02:42:33;;;;;;;1.17;1.08;;;11.90;54.70;;;;;;4986068;28;20063;-69
2023/04/28 02:44:58;;;;;;;3.90;0.88;;;11.80;54.70;;;;;;4971230;28;20046;-69
2023/04/28 02:47:24;;;;;;;1.02;0.73;;;11.80;54.70;;;;;;4992372;28;20038;-70
2023/04/28 02:49:50;;;;;;;6.47;0.80;;;11.80;54.70;;;;;;5011584;28;20112;-70
2023/04/28 02:52:15;;;;;;;1.15;0.70;;;11.90;54.70;;;;;;4994228;28;20374;-70
2023/04/28 02:54:41;;;;;;;1.48;0.85;;;11.80;54.80;;;;;;5011236;28;20426;-70
2023/04/28 02:57:07;;;;;;;0.73;0.70;;;11.80;54.80;;;;;;5003126;28;20088;-71
2023/04/28 02:59:34;;;;;;;0.98;0.60;;;11.80;54.80;;;;;;5009174;28;20433;-71
2023/04/28 03:02:00;;;;;;;1.05;0.95;;;11.80;54.70;;;;;;4986393;28;20022;-72
2023/04/28 03:04:26;;;;;;;0.70;0.70;;;11.80;54.70;;;;;;4991674;28;20095;-71
2023/04/28 03:06:52;;;;;;;1.08;0.95;;;11.80;55.20;;;;;;5007933;28;20036;-72
2023/04/28 03:09:17;;;;;;;0.75;0.60;;;11.80;54.50;;;;;;5004526;28;20140;-72
2023/04/28 03:11:43;;;;;;;1.38;0.75;;;11.90;54.70;;;;;;5009820;28;20076;-72
2023/04/28 03:14:08;;;;;;;0.82;0.77;;;11.90;54.40;;;;;;5004875;28;20069;-72
2023/04/28 03:16:34;;;;;;;3.38;0.95;;;11.80;54.40;;;;;;4990444;28;20084;-71
2023/04/28 03:19:00;;;;;;;1.33;1.00;;;11.80;54.50;;;;;;5002316;28;20374;-72
2023/04/28 03:21:26;;;;;;;1.55;0.93;;;11.80;54.50;;;;;;4994155;28;20041;-71
2023/04/28 03:23:52;;;;;;;1.00;0.60;;;11.80;54.70;;;;;;5011137;28;20041;-72
2023/04/28 03:26:18;;;;;;;2.13;0.63;;;11.70;54.70;;;;;;5011193;28;20033;-70
2023/04/28 03:28:44;;;;;;;2.58;0.60;;;11.70;54.70;;;;;;5009627;28;20022;-70
2023/04/28 03:31:10;;;;;;;0.98;0.93;;;11.70;54.70;;;;;;5007032;28;20061;-72
2023/04/28 03:33:35;;;;;;;1.17;0.80;;;11.70;54.70;;;;;;5009717;28;20057;-71
2023/04/28 03:36:01;;;;;;;2.08;1.05;;;11.80;54.70;;;;;;5007546;28;20089;-71
2023/04/28 03:38:27;;;;;;;1.55;0.93;;;11.70;54.60;;;;;;4999326;28;20034;-71
2023/04/28 03:40:52;;;;;;;2.50;1.08;;;11.80;54.70;;;;;;4985572;28;20038;-71
2023/04/28 03:43:18;;;;;;;1.77;1.02;;;11.80;54.60;;;;;;4997005;28;20037;-70
2023/04/28 03:45:44;;;;;;;1.98;0.95;;;11.70;54.60;;;;;;5005716;28;20033;-70
2023/04/28 03:48:10;;;;;;;1.05;0.85;;;11.80;54.70;;;;;;4989589;28;20026;-69
2023/04/28 03:50:35;;;;;;;0.82;0.55;;;11.70;54.70;;;;;;5002600;28;20484;-69
2023/04/28 03:53:01;;;;;;;1.70;1.13;;;11.80;54.90;;;;;;5009600;28;20033;-71
2023/04/28 03:55:27;;;;;;;1.13;0.85;;;11.80;55.10;;;;;;5004682;28;20038;-70
2023/04/28 03:57:53;;;;;;;0.85;0.75;;;11.80;55.10;;;;;;5008533;28;20018;-70
2023/04/28 04:00:19;;;;;;;2.10;1.25;;;11.80;55.20;;;;;;5009458;28;20499;-70
2023/04/28 04:02:45;;;;;;;1.58;1.00;;;11.90;55.30;;;;;;5009859;28;20037;-70
2023/04/28 04:05:11;;;;;;;1.17;1.00;;;11.80;55.30;;;;;;5009953;28;20061;-70
2023/04/28 04:07:36;;;;;;;3.28;1.05;;;11.80;55.50;;;;;;4991779;28;20026;-70
2023/04/28 04:10:02;;;;;;;1.92;1.00;;;11.80;55.50;;;;;;5010201;28;20060;-68
2023/04/28 04:12:28;;;;;;;3.35;0.95;;;11.80;55.50;;;;;;5006430;28;20501;-69
2023/04/28 04:14:54;;;;;;;1.20;0.82;;;11.80;55.50;;;;;;5009983;28;20057;-69
2023/04/28 04:17:19;;;;;;;1.17;0.90;;;11.80;55.50;;;;;;5010283;28;20120;-69
2023/04/28 04:19:45;;;;;;;0.93;0.70;;;11.80;55.60;;;;;;5009606;28;20034;-69
2023/04/28 04:22:10;;;;;;;0.88;0.75;;;11.90;55.70;;;;;;5009197;28;20033;-69
2023/04/28 04:24:36;;;;;;;1.27;0.93;;;11.80;55.70;;;;;;5009907;28;20036;-69
2023/04/28 04:27:02;;;;;;;2.38;1.27;;;11.80;55.90;;;;;;5008526;28;20036;-69
2023/04/28 04:29:27;;;;;;;0.50;0.50;;;11.80;56.00;;;;;;5007164;28;20493;-70
2023/04/28 04:31:53;;;;;;;4.93;1.05;;;11.80;56.00;;;;;;4992103;28;20030;-70
2023/04/28 04:34:19;;;;;;;2.45;1.20;;;11.80;56.10;;;;;;5009108;28;20539;-70
2023/04/28 04:36:44;;;;;;;2.30;0.73;;;11.80;56.30;;;;;;5005675;28;20030;-70
2023/04/28 04:39:10;;;;;;;1.40;1.15;;;11.80;56.40;;;;;;5006154;28;20017;-70
2023/04/28 04:41:36;;;;;;;1.42;1.23;;;11.80;56.50;;;;;;5007055;28;20030;-70
2023/04/28 04:44:03;;;;;;;2.35;0.73;;;11.80;56.60;;;;;;5003643;28;20109;-70
2023/04/28 04:46:29;;;;;;;2.55;1.23;;;11.80;56.80;;;;;;5009347;28;20030;-70
2023/04/28 04:48:55;;;;;;;1.15;0.80;;;11.80;57.00;;;;;;5009638;28;20026;-70
2023/04/28 04:51:20;;;;;;;3.30;1.40;;;11.80;57.10;;;;;;5008299;28;20053;-69
2023/04/28 04:53:46;;;;;;;4.07;1.58;;;11.90;57.10;;;;;;5007670;28;20041;-68
2023/04/28 04:56:12;;;;;;;2.90;1.10;;;11.90;57.20;;;;;;4999138;28;20033;-69
2023/04/28 04:58:37;;;;;;;1.20;1.00;;;11.90;57.40;;;;;;4991313;28;20030;-69
2023/04/28 05:01:03;;;;;;;1.92;1.10;;;11.90;57.50;;;;;;5007973;28;20036;-72
2023/04/28 05:03:29;;;;;;;5.20;1.30;;;11.90;57.70;;;;;;5000144;28;20026;-71
2023/04/28 05:05:55;;;;;;;2.53;1.67;;;11.80;57.80;;;;;;5008574;28;20499;-69
2023/04/28 05:08:20;;;;;;;0.75;0.73;;;11.80;58.00;;;;;;5006403;28;20049;-70
2023/04/28 05:10:46;;;;;;;1.42;1.05;;;11.80;57.90;;;;;;4990423;28;20062;-70
2023/04/28 05:13:12;;;;;;;2.08;1.33;;;11.80;58.20;;;;;;5003088;28;20121;-70
2023/04/28 05:15:37;;;;;;;2.00;1.23;;;11.80;58.30;;;;;;5006145;28;20053;-70
2023/04/28 05:18:08;;;;;;;1.60;1.13;;;11.80;58.30;;;;;;4990734;28;20030;-71
2023/04/28 05:20:34;;;;;;;2.45;1.40;;;11.90;59.10;;;;;;4998160;28;20032;-70
2023/04/28 05:23:00;;;;;;;1.67;1.13;;;11.90;58.50;;;;;;5004142;28;20396;-70
2023/04/28 05:25:25;;;;;;;1.45;1.27;;;11.90;58.60;;;;;;5007679;28;20156;-70
2023/04/28 05:27:51;;;;;;;2.03;1.25;;;11.90;58.70;;;;;;5004539;28;20485;-70
2023/04/28 05:30:17;;;;;;;3.80;1.52;;;11.90;59.00;;;;;;5004142;28;20037;-66
2023/04/28 05:32:42;;;;;;;1.42;1.13;;;12.00;59.20;;;;;;4964192;28;20121;-69
2023/04/28 05:35:08;;;;;;;1.83;1.30;;;12.00;59.30;;;;;;5009645;28;20022;-68
2023/04/28 05:37:36;;;;;;;1.50;1.20;;;12.00;59.30;;;;;;4992292;28;20034;-70
2023/04/28 05:40:02;;;;;;;5.18;1.63;;;12.00;59.30;;;;;;4999386;28;20037;-69
2023/04/28 05:42:28;;;;;;;1.98;1.33;;;12.00;59.50;;;;;;5000786;28;20481;-69
2023/04/28 05:44:53;;;;;;;2.03;1.42;;;12.00;59.60;;;;;;5005197;28;20057;-68
2023/04/28 05:47:19;;;;;;;2.15;1.38;;;12.10;59.80;;;;;;5006281;28;20504;-69
2023/04/28 05:49:45;;;;;;;2.53;1.40;;;12.10;60.00;;;;;;5006215;28;20474;-69
2023/04/28 05:52:11;;;;;;;3.38;1.38;;;12.10;60.10;;;;;;5008210;28;20516;-69
2023/04/28 05:54:36;;;;;;;2.08;1.40;;;12.10;60.20;;;;;;5007616;28;20037;-70
2023/04/28 05:57:02;;;;;;;1.98;1.40;;;12.10;60.60;;;;;;5005049;28;20473;-72
2023/04/28 05:59:29;;;;;;;1.48;1.30;;;12.10;60.80;;;;;;5005107;28;20022;-72
2023/04/28 06:01:55;;;;;;;1.92;1.20;;;12.20;61.10;;;;;;5002173;28;20022;-71
2023/04/28 06:04:20;;;;;;;3.42;1.70;;;12.20;61.20;;;;;;5005522;28;20054;-70
2023/04/28 06:06:46;;;;;;;2.47;1.70;;;12.20;61.60;;;;;;5011401;28;20077;-73
2023/04/28 06:09:12;;;;;;;1.88;1.30;;;12.20;61.90;;;;;;5007315;28;20457;-71
2023/04/28 06:11:37;;;;;;;3.00;1.40;;;12.20;62.20;;;;;;5009749;28;20030;-70
2023/04/28 06:14:03;;;;;;;1.80;1.35;;;12.20;62.30;;;;;;4994453;28;20128;-70
2023/04/28 06:16:29;;;;;;;2.05;1.55;;;12.30;62.20;;;;;;5013990;28;20022;-71
2023/04/28 06:18:55;;;;;;;2.78;1.35;;;12.30;62.40;;;;;;5012314;28;20041;-71
2023/04/28 06:21:20;;;;;;;2.55;1.50;;;12.30;62.60;;;;;;5011810;28;20030;-71
2023/04/28 06:23:46;;;;;;;4.45;2.17;;;12.30;63.00;;;;;;4995397;28;20041;-71
2023/04/28 06:26:12;;;;;;;2.35;1.73;;;12.30;63.60;;;;;;5012884;28;20425;-71
2023/04/28 06:28:38;;;;;;;3.33;2.25;;;12.20;64.70;;;;;;5012662;28;20025;-70
2023/04/28 06:31:03;;;;;;;4.68;2.50;;;12.30;65.50;;;;;;5012226;28;20029;-70
2023/04/28 06:33:29;;;;;;;2.97;1.40;;;12.20;66.20;;;;;;5008908;28;20030;-70
2023/04/28 06:35:55;;;;;;;3.03;2.20;;;12.20;66.50;;;;;;5012661;28;20033;-70
2023/04/28 06:38:21;;;;;;;4.38;2.15;;;12.20;66.90;;;;;;4994634;28;20080;-70
2023/04/28 06:40:47;;;;;;;3.30;2.03;;;12.30;68.00;;;;;;5011890;28;20018;-71
2023/04/28 06:43:12;;;;;;;3.60;2.42;;;12.30;67.70;;;;;;4994455;28;20026;-70
2023/04/28 06:45:38;;;;;;;2.65;2.00;;;12.40;67.80;;;;;;5012404;28;20029;-71
2023/04/28 06:48:04;;;;;;;2.88;2.03;;;12.40;68.00;;;;;;4992905;28;20453;-71
2023/04/28 06:50:30;;;;;;;4.43;2.42;;;12.50;68.30;;;;;;5012564;28;20026;-72
2023/04/28 06:52:57;;;;;;;4.82;2.50;;;12.50;68.40;;;;;;5012650;28;20030;-72
2023/04/28 06:55:23;;;;;;;4.50;2.20;;;12.50;68.60;;;;;;5010546;28;20069;-72
2023/04/28 06:57:49;;;;;;;3.50;2.10;;;12.60;68.60;;;;;;5011543;28;20037;-72
2023/04/28 07:00:15;;;;;;;3.00;2.20;;;12.70;68.80;;;;;;5012085;28;20044;-72
2023/04/28 07:02:41;;;;;;;2.92;2.17;;;12.70;69.00;;;;;;5012024;28;20445;-72
2023/04/28 07:05:07;;;;;;;3.05;2.35;;;12.80;69.30;;;;;;5008253;28;20050;-72
2023/04/28 07:07:33;;;;;;;4.63;2.53;;;12.90;69.70;;;;;;5012431;28;20030;-71
2023/04/28 07:09:59;;;;;;;2.83;2.40;;;12.90;69.80;;;;;;5010687;28;20074;-70
2023/04/28 07:12:26;;;;;;;3.65;2.35;;;13.10;70.10;;;;;;5010829;28;20091;-71
2023/04/28 07:14:52;;;;;;;2.88;1.95;;;13.10;70.20;;;;;;5011552;28;20046;-71
2023/04/28 07:17:17;;;;;;;3.65;2.13;;;13.20;70.10;;;;;;5010935;28;20030;-71
2023/04/28 07:19:43;;;;;;;4.00;2.63;;;13.30;69.90;;;;;;5012291;28;20030;-71
2023/04/28 07:22:08;;;;;;;4.55;2.47;;;13.30;70.20;;;;;;5011564;28;20033;-71
2023/04/28 07:24:34;;;;;;;2.58;1.90;;;13.40;70.20;;;;;;4994493;28;20026;-71
2023/04/28 07:27:00;;;;;;;3.13;2.05;;;13.40;70.40;;;;;;5011383;28;20036;-72
2023/04/28 07:29:32;;;;;;;5.78;3.42;;;13.50;70.60;;;;;;4994092;28;20096;-71
2023/04/28 07:31:58;;;;;;;3.28;2.22;;;13.50;70.80;;;;;;5003383;28;20461;-71
2023/04/28 07:34:24;;;;;;;2.53;2.08;;;13.50;70.90;;;;;;5011628;28;20029;-72
2023/04/28 07:36:50;;;;;;;5.18;2.50;;;13.50;71.10;;;;;;5011503;28;20025;-72
2023/04/28 07:39:16;;;;;;;3.55;2.22;;;13.50;71.40;;;;;;4987510;28;20540;-72
2023/04/28 07:41:41;;;;;;;3.20;2.28;;;13.50;71.60;;;;;;4993127;28;20053;-73
2023/04/28 07:44:07;;;;;;;4.32;2.50;;;13.50;71.60;;;;;;5011005;28;20088;-73
2023/04/28 07:46:33;;;;;;;5.13;2.83;;;13.50;71.90;;;;;;5011951;28;20117;-72
2023/04/28 07:48:59;;;;;;;3.90;2.25;;;13.50;72.10;;;;;;5004534;28;20477;-72
2023/04/28 07:51:25;;;;;;;3.47;2.25;;;13.50;72.10;;;;;;4990308;28;20061;-72
2023/04/28 07:53:51;;;;;;;3.80;2.53;;;13.60;72.20;;;;;;4982780;28;20482;-72
2023/04/28 07:56:17;;;;;;;3.50;2.35;;;13.60;72.20;;;;;;5003400;28;20075;-73
2023/04/28 07:58:43;;;;;;;3.38;2.15;;;13.60;72.80;;;;;;4979832;28;20080;-72
2023/04/28 08:01:08;;;;;;;3.78;2.53;;;13.60;72.10;;;;;;5006340;28;20493;-72
2023/04/28 08:03:34;;;;;;;4.25;2.08;;;13.70;72.20;;;;;;4985829;28;20502;-71
2023/04/28 08:06:00;;;;;;;2.42;1.73;;;13.80;72.20;;;;;;4990444;28;20112;-73
2023/04/28 08:08:26;;;;;;;3.15;2.38;;;13.90;72.10;;;;;;4961933;28;20058;-73
2023/04/28 08:10:53;;;;;;;2.65;2.28;;;13.90;72.00;;;;;;4999060;28;20029;-72
2023/04/28 08:13:18;;;;;;;2.85;2.00;;;13.90;71.90;;;;;;5010458;28;20069;-73
2023/04/28 08:15:46;;;;;;;5.88;2.00;;;14.00;72.10;;;;;;4969357;28;20087;-73
2023/04/28 08:18:11;;;;;;;2.97;2.13;;;14.00;72.30;;;;;;4964054;28;20035;-72
2023/04/28 08:20:37;;;;;;;4.68;2.28;;;13.90;72.50;;;;;;4967111;28;20028;-72
2023/04/28 08:23:03;;;;;;;3.22;2.13;;;13.90;72.80;;;;;;4971054;28;20030;-72
2023/04/28 08:25:28;;;;;;;3.28;2.10;;;13.90;72.80;;;;;;4964228;28;20030;-72
2023/04/28 08:27:55;;;;;;;2.58;1.90;;;14.00;72.70;;;;;;4962036;28;20070;-72
2023/04/28 08:30:21;;;;;;;4.82;1.95;;;14.00;72.60;;;;;;4971451;28;20030;-72
2023/04/28 08:32:47;;;;;;;3.13;1.80;;;14.10;72.40;;;;;;4971620;28;20034;-71
2023/04/28 08:35:14;;;;;;;2.55;1.70;;;14.20;72.30;;;;;;4970226;28;20038;-72
2023/04/28 08:37:40;;;;;;;3.03;1.92;;;14.40;72.20;;;;;;4971705;28;20038;-71
2023/04/28 08:40:09;;;;;;;4.03;2.47;;;14.60;72.10;;;;;;4970013;28;20085;-71
2023/04/28 08:42:36;;;;;;;5.38;2.80;;;14.70;72.00;;;;;;4969319;28;20382;-71
2023/04/28 08:45:04;;;;;;;5.72;2.80;;;14.90;72.20;;;;;;4971303;28;20065;-73
2023/04/28 08:47:38;;;;;;;5.20;2.92;;;14.90;72.10;;;;;;4971489;28;20395;-73
2023/04/28 08:50:06;;;;;;;5.82;2.95;;;14.80;72.00;;;;;;4963941;28;20057;-72
2023/04/28 08:52:32;;;;;;;4.03;2.40;;;14.90;72.00;;;;;;4971978;28;20106;-72
2023/04/28 08:55:06;;;;;;;3.47;2.22;;;14.80;72.20;;;;;;4971016;28;20477;-73
2023/04/28 08:57:45;;;;;;;3.90;2.40;;;14.80;72.30;;;;;;4968760;28;20022;-71
2023/04/28 09:00:11;;;;;;;4.35;2.42;;;14.70;72.40;;;;;;4963779;28;20034;-72
2023/04/28 09:02:40;;;;;;;3.63;2.17;;;14.70;72.60;;;;;;4969350;28;20027;-72
2023/04/28 09:05:07;;;;;;;3.88;3.05;;;14.80;72.60;;;;;;4968948;28;20035;-72
2023/04/28 09:07:33;;;;;;;4.82;3.35;;;14.80;72.80;;;;;;4969591;28;20167;-72
2023/04/28 09:10:20;;;;;;;8.48;3.97;;;14.80;73.50;;;;;;4969431;28;20493;-72
2023/04/28 09:12:47;;;;;;;5.25;3.15;;;14.80;73.20;;;;;;4962995;28;20022;-72
2023/04/28 09:15:33;;;;;;;3.92;2.70;;;14.80;73.40;;;;;;4989255;28;20061;-73
2023/04/28 09:18:01;;;;;;;2.17;1.90;;;14.80;73.40;;;;;;5002398;28;20461;-72
2023/04/28 09:20:28;;;;;;;5.43;2.67;;;14.70;73.40;;;;;;4987278;28;20144;-73
2023/04/28 09:22:56;;;;;;;3.40;2.33;;;14.70;73.40;;;;;;4987732;28;20065;-73
2023/04/28 09:25:22;;;;;;;6.15;3.10;;;14.70;73.50;;;;;;5004429;28;20057;-73
2023/04/28 09:27:51;;;;;;;5.88;3.80;;;14.70;73.60;;;;;;5003700;28;20033;-73
2023/04/28 09:30:17;;;;;;;5.75;2.83;;;14.60;74.50;;;;;;5007747;28;20025;-72
2023/04/28 09:32:43;;;;;;;5.60;2.65;;;14.60;74.10;;;;;;4990105;28;20038;-72
2023/04/28 09:35:09;;;;;;;6.50;2.10;;;14.70;74.20;;;;;;5004170;28;20062;-73
2023/04/28 09:37:36;;;;;;;4.40;2.67;;;14.80;74.00;;;;;;5004636;28;20064;-73
2023/04/28 09:40:04;;;;;;;3.00;1.92;;;14.80;73.90;;;;;;5007137;28;20033;-71
2023/04/28 09:42:35;;;;;;;3.20;2.33;;;14.80;73.80;;;;;;5003363;28;20037;-72
2023/04/28 09:45:04;;;;;;;4.93;3.00;;;14.90;73.70;;;;;;4988253;28;20121;-72
2023/04/28 09:47:32;;;;;;;5.20;2.63;;;14.90;74.00;;;;;;4987356;28;20034;-72
2023/04/28 09:50:01;;;;;;;4.45;2.70;;;14.90;74.00;;;;;;5007097;28;20026;-73
2023/04/28 09:52:26;;;;;;;5.32;2.50;;;14.90;74.00;;;;;;5006205;28;20481;-72
2023/04/28 09:54:55;;;;;;;3.47;2.10;;;14.90;74.20;;;;;;5007275;28;20033;-73
2023/04/28 09:57:22;;;;;;;5.78;3.20;;;15.00;74.20;;;;;;5006596;28;20030;-73
2023/04/28 09:59:53;;;;;;;6.53;3.15;;;15.00;74.50;;;;;;4988155;28;20057;-73
2023/04/28 10:02:19;;;;;;;5.60;2.20;;;15.00;74.40;;;;;;5005150;28;20023;-72
2023/04/28 10:04:47;;;;;;;4.85;2.67;;;15.00;74.40;;;;;;5002882;28;20112;-71
2023/04/28 10:07:15;;;;;;;4.75;2.42;;;15.00;74.50;;;;;;4985278;28;20389;-71
2023/04/28 10:09:48;;;;;;;4.65;2.47;;;15.00;74.60;;;;;;5005244;28;20022;-70
2023/04/28 10:12:18;;;;;;;2.95;2.10;;;15.00;74.80;;;;;;5006447;28;20034;-70
2023/04/28 10:14:45;;;;;;;2.83;2.20;;;14.90;74.90;;;;;;4999610;28;20041;-70
2023/04/28 10:17:15;;;;;;;3.40;2.40;;;14.90;74.80;;;;;;5003837;28;20058;-71
2023/04/28 10:19:43;;;;;;;3.42;2.25;;;15.00;74.80;;;;;;5002617;28;20064;-71
2023/04/28 10:22:36;;;;;;;3.38;2.40;;;15.00;75.20;;;;;;5003102;28;20572;-71
2023/04/28 10:25:05;;;;;;;2.92;1.70;;;15.10;74.70;;;;;;5008115;28;20022;-73
2023/04/28 10:27:33;;;;;;;3.40;2.13;;;15.10;74.60;;;;;;5001883;28;20040;-72
2023/04/28 10:30:18;;;;;;;3.33;1.83;;;15.20;74.60;;;;;;4988018;28;20037;-73
2023/04/28 10:32:47;;;;;;;2.28;2.08;;;15.20;74.60;;;;;;4990726;28;20045;-73
2023/04/28 10:35:28;;;;;;;3.70;2.42;;;15.20;74.60;;;;;;5007014;28;20038;-73
2023/04/28 10:38:11;;;;;;;3.72;2.38;;;15.30;74.60;;;;;;5003830;28;20444;-73
2023/04/28 10:40:38;;;;;;;5.15;2.70;;;15.20;74.70;;;;;;5007033;28;20026;-73
2023/04/28 10:43:05;;;;;;;4.18;2.55;;;15.20;75.10;;;;;;5000017;28;21408;-73
2023/04/28 10:45:52;;;;;;;3.90;2.72;;;15.10;75.40;;;;;;5011781;28;20092;-73
2023/04/28 10:48:47;;;;;;;4.15;2.33;;;15.20;75.40;;;;;;5005463;28;20026;-72
2023/04/28 10:51:16;;;;;;;3.45;2.47;;;15.20;75.70;;;;;;4985674;28;20068;-72
2023/04/28 10:53:42;;;;;;;3.35;2.13;;;15.20;75.70;;;;;;5009345;28;20384;-73
2023/04/28 10:56:08;;;;;;;7.15;3.53;;;15.20;75.70;;;;;;4992774;28;20053;-72
2023/04/28 10:58:36;;;;;;;3.25;2.10;;;15.30;76.10;;;;;;5010048;28;20022;-72
2023/04/28 11:01:20;;;;;;;4.45;2.33;;;15.30;76.00;;;;;;5006179;28;20428;-72
2023/04/28 11:06:35;;;;;;;3.83;2.10;;;15.30;76.20;;;;;;5005881;28;20038;-72
2023/04/28 11:09:11;;;;;;;3.67;2.50;;;15.20;76.50;;;;;;5007191;28;20041;-71
2023/04/28 11:11:38;;;;;;;3.85;2.50;;;15.30;76.60;;;;;;5007001;28;20058;-71
2023/04/28 11:14:17;;;;;;;4.32;2.53;;;15.30;76.50;;;;;;4985794;28;20487;-71
2023/04/28 11:16:55;;;;;;;3.42;2.10;;;15.40;76.50;;;;;;5005110;28;20026;-72
2023/04/28 11:19:23;;;;;;;6.30;3.08;;;15.50;76.60;;;;;;5009800;28;20034;-72
2023/04/28 11:21:50;;;;;;;5.55;2.63;;;15.50;76.90;;;;;;5005171;28;20113;-72
2023/04/28 11:24:16;;;;;;;3.83;2.80;;;15.50;77.10;;;;;;4991530;28;20064;-70
2023/04/28 11:26:43;;;;;;;3.97;2.40;;;15.40;77.50;;;;;;5012143;28;20033;-71
2023/04/28 11:29:10;;;;;;;2.72;2.00;;;15.40;77.80;;;;;;5007141;28;20099;-70
2023/04/28 11:31:36;;;;;;;3.25;2.50;;;15.50;78.40;;;;;;5011705;28;20477;-71
2023/04/28 11:34:13;;;;;;;3.83;2.40;;;15.50;78.30;;;;;;5006932;28;20025;-71
2023/04/28 11:36:40;;;;;;;3.25;2.38;;;15.60;78.40;;;;;;5011878;28;20022;-71
2023/04/28 11:39:08;;;;;;;3.55;2.88;;;15.60;78.50;;;;;;5008426;28;20132;-71
2023/04/28 11:41:35;;;;;;;2.67;2.20;;;15.70;79.40;;;;;;5005083;28;20034;-70
2023/04/28 11:44:12;;;;;;;6.65;2.42;;;15.70;79.70;;;;;;5007223;28;20049;-71
2023/04/28 11:46:45;;;;;;;3.60;2.10;;;15.70;79.70;;;;;;5011664;28;20034;-70
2023/04/28 11:49:13;;;;;;;1.65;1.38;;;15.70;79.50;;;;;;5004881;28;20030;-70
2023/04/28 11:51:41;;;;;;;2.92;1.95;;;15.70;79.70;;;;;;5010100;28;20029;-70
2023/04/28 11:54:10;;;;;;;2.92;2.10;;;15.60;80.50;;;;;;5006911;28;20059;-71
2023/04/28 11:56:38;;;;;;;2.85;1.98;;;15.50;81.10;;;;;;5007596;28;20057;-70
2023/04/28 11:59:13;;;;;;;2.63;1.98;;;15.50;81.40;;;;;;5002892;28;20037;-70
2023/04/28 12:01:53;;;;;;;2.30;1.40;;;15.50;81.50;;;;;;5008547;28;20117;-71
2023/04/28 12:04:37;;;;;;;2.95;1.88;;;15.50;81.50;;;;;;5011166;28;20042;-70
2023/04/28 12:07:11;;;;;;;2.58;2.08;;;15.50;81.80;;;;;;5011303;28;20385;-72
2023/04/28 12:09:43;;;;;;;4.72;3.17;;;15.50;81.80;;;;;;5004671;28;20038;-72
2023/04/28 12:12:27;;;;;;;4.95;3.38;;;15.70;81.80;;;;;;5005763;28;20022;-72
2023/04/28 12:14:58;;;;;;;5.15;3.08;;;15.80;81.90;;;;;;5002891;28;20084;-72
2023/04/28 12:17:29;;;;;;;6.88;3.90;;;15.80;82.20;;;;;;4987549;28;20034;-71
2023/04/28 12:19:55;;;;;;;5.75;2.90;;;15.70;82.70;;;;;;4990611;28;20507;-71
2023/04/28 12:22:22;;;;;;;3.95;2.53;;;15.70;82.70;;;;;;4992911;28;20029;-71
2023/04/28 12:25:11;;;;;;;4.68;2.90;;;15.70;82.60;;;;;;5010956;28;20778;-71
2023/04/28 12:27:39;;;;;;;4.57;3.40;;;15.70;82.60;;;;;;5007050;28;20045;-71
2023/04/28 12:30:30;;;;;;;4.45;2.65;;;15.60;82.50;;;;;;5004987;28;20038;-71
2023/04/28 12:32:56;;;;;;;5.22;3.30;;;15.60;82.60;;;;;;5010038;28;20037;-72
2023/04/28 12:35:26;;;;;;;4.38;3.00;;;15.50;83.50;;;;;;5009381;28;20037;-71
2023/04/28 12:37:53;;;;;;;5.80;3.47;;;15.50;84.10;;;;;;5005460;28;20465;-71
2023/04/28 12:40:19;;;;;;;7.15;4.22;;;15.40;84.90;;;;;;5004391;28;20453;-71
2023/04/28 12:42:44;;;;;;;4.53;3.08;;;15.30;85.00;;;;;;4978047;28;20109;-71
2023/04/28 12:45:10;;;;;;;4.57;2.67;;;15.30;85.00;;;;;;4993596;28;20792;-70
2023/04/28 12:47:37;;;;;;;3.72;2.65;;;15.30;84.80;;;;;;4999174;28;20034;-70
2023/04/28 12:50:04;;;;;;;3.30;2.97;;;15.40;84.60;;;;;;5011019;28;20420;-71
2023/04/28 12:52:32;;;;;;;3.78;2.63;;;15.40;84.50;;;;;;4993367;28;20062;-70